createdAt,value
2019-02-15T00:01:06.984Z,1.00
2019-02-15T00:03:34.610Z,1.00
2019-02-15T00:06:02.603Z,1.00
2019-02-15T00:08:30.788Z,1.10
2019-02-15T00:10:58.733Z,1.10
2019-02-15T00:13:26.387Z,1.00
2019-02-15T00:15:54.466Z,0.80
2019-02-15T00:18:50.884Z,0.80
2019-02-15T00:21:20.643Z,0.70
2019-02-15T00:23:48.261Z,0.80
2019-02-15T00:26:16.835Z,0.90
2019-02-15T00:28:44.373Z,0.70
2019-02-15T00:31:14.712Z,0.70
2019-02-15T00:33:42.404Z,0.80
2019-02-15T00:36:10.049Z,0.70
2019-02-15T00:38:37.645Z,0.80
2019-02-15T00:41:05.255Z,0.60
2019-02-15T00:43:32.875Z,0.50
2019-02-15T00:46:09.606Z,0.40
2019-02-15T00:48:37.542Z,0.50
2019-02-15T00:51:18.047Z,0.40
2019-02-15T00:53:57.859Z,0.50
2019-02-15T00:56:43.625Z,0.50
2019-02-15T00:59:28.003Z,0.70
2019-02-15T01:02:18.245Z,0.60
2019-02-15T01:05:03.850Z,0.80
2019-02-15T01:07:53.936Z,0.90
2019-02-15T01:10:32.557Z,0.80
2019-02-15T01:13:05.042Z,0.80
2019-02-15T01:15:32.926Z,0.60
2019-02-15T01:18:00.569Z,0.70
2019-02-15T01:20:28.182Z,0.70
2019-02-15T01:22:55.655Z,0.70
2019-02-15T01:25:24.161Z,0.60
2019-02-15T01:28:03.066Z,0.50
2019-02-15T01:31:02.023Z,0.30
2019-02-15T01:33:49.097Z,0.40
2019-02-15T01:36:36.781Z,0.40
2019-02-15T01:39:33.834Z,0.40
2019-02-15T01:42:20.894Z,0.30
2019-02-15T01:44:53.223Z,0.60
2019-02-15T01:47:24.290Z,0.50
2019-02-15T01:49:51.920Z,0.50
2019-02-15T01:52:19.526Z,0.40
2019-02-15T01:54:47.117Z,0.50
2019-02-15T01:57:14.716Z,0.40
2019-02-15T01:59:42.296Z,0.50
2019-02-15T02:02:10.396Z,0.50
2019-02-15T02:04:38.681Z,0.60
2019-02-15T02:07:06.320Z,0.60
2019-02-15T02:09:34.223Z,0.50
2019-02-15T02:12:02.994Z,0.60
2019-02-15T02:14:32.090Z,0.90
2019-02-15T02:17:00.054Z,0.90
2019-02-15T02:19:28.538Z,1.00
2019-02-15T02:21:56.087Z,0.90
2019-02-15T02:24:23.959Z,0.80
2019-02-15T02:26:51.566Z,0.60
2019-02-15T02:29:20.426Z,0.60
2019-02-15T02:31:47.980Z,0.60
2019-02-15T02:34:15.938Z,0.50
2019-02-15T02:36:53.919Z,0.60
2019-02-15T02:39:22.126Z,0.60
2019-02-15T02:41:49.717Z,1.00
2019-02-15T02:44:18.045Z,1.10
2019-02-15T02:46:45.909Z,1.20
2019-02-15T02:49:14.016Z,1.10
2019-02-15T02:51:41.553Z,1.10
2019-02-15T02:54:09.242Z,1.10
2019-02-15T02:56:37.055Z,0.90
2019-02-15T02:59:09.069Z,0.80
2019-02-15T03:01:36.649Z,0.80
2019-02-15T03:04:04.415Z,0.70
2019-02-15T03:06:33.005Z,0.50
2019-02-15T03:09:00.616Z,0.50
2019-02-15T03:16:44.983Z,0.40
2019-02-15T03:19:12.530Z,0.40
2019-02-15T03:21:40.010Z,0.50
2019-02-15T03:24:08.029Z,0.60
2019-02-15T03:26:35.351Z,0.70
2019-02-15T03:29:02.789Z,0.60
2019-02-15T03:31:30.501Z,0.40
2019-02-15T03:33:57.965Z,0.30
2019-02-15T03:36:44.799Z,0.10
2019-02-15T03:39:22.183Z,-0.10
2019-02-15T03:41:49.481Z,-0.20
2019-02-15T03:44:22.132Z,-0.30
2019-02-15T03:46:46.092Z,-0.20
2019-02-15T03:49:13.702Z,-0.10
2019-02-15T03:51:41.612Z,-0.30
2019-02-15T03:54:09.526Z,-0.30
2019-02-15T03:56:36.853Z,-0.40
2019-02-15T03:59:04.262Z,-0.40
2019-02-15T04:01:31.636Z,-0.50
2019-02-15T04:03:59.043Z,-0.50
2019-02-15T04:06:26.464Z,-0.60
2019-02-15T04:08:53.974Z,-0.80
2019-02-15T04:11:21.428Z,-0.80
2019-02-15T04:13:48.810Z,-0.80
2019-02-15T04:16:16.158Z,-0.70
2019-02-15T04:18:43.685Z,-0.60
2019-02-15T04:21:11.637Z,-0.60
2019-02-15T04:23:39.050Z,-0.70
2019-02-15T04:26:06.385Z,-0.60
2019-02-15T04:28:33.715Z,-0.60
2019-02-15T04:31:01.158Z,-0.70
2019-02-15T04:33:28.771Z,-0.80
2019-02-15T04:35:56.271Z,-0.80
2019-02-15T04:38:23.695Z,-1.00
2019-02-15T04:40:51.104Z,-1.00
2019-02-15T04:43:18.832Z,-1.00
2019-02-15T04:45:47.059Z,-0.90
2019-02-15T04:48:14.723Z,-0.90
2019-02-15T04:50:42.436Z,-0.80
2019-02-15T04:53:09.868Z,-0.70
2019-02-15T04:55:37.289Z,-0.60
2019-02-15T04:58:04.702Z,-0.30
2019-02-15T05:00:32.249Z,0.00
2019-02-15T05:02:59.638Z,0.30
2019-02-15T05:05:26.947Z,0.30
2019-02-15T05:07:54.220Z,0.30
2019-02-15T05:10:21.546Z,0.30
2019-02-15T05:12:49.129Z,0.40
2019-02-15T05:15:16.465Z,0.30
2019-02-15T05:17:43.732Z,0.20
2019-02-15T05:20:11.362Z,0.10
2019-02-15T05:22:38.904Z,0.00
2019-02-15T05:25:06.333Z,-0.10
2019-02-15T05:27:33.620Z,-0.10
2019-02-15T05:30:00.986Z,0.00
2019-02-15T05:32:28.893Z,0.00
2019-02-15T05:34:56.236Z,0.00
2019-02-15T05:37:23.503Z,-0.10
2019-02-15T05:39:51.212Z,-0.20
2019-02-15T05:42:18.516Z,-0.30
2019-02-15T05:44:46.143Z,-0.40
2019-02-15T05:47:13.424Z,-0.40
2019-02-15T05:49:40.775Z,-0.50
2019-02-15T05:52:08.685Z,-0.30
2019-02-15T05:54:36.270Z,-0.20
2019-02-15T05:57:03.561Z,-0.40
2019-02-15T05:59:31.226Z,-0.50
2019-02-15T06:01:58.574Z,-0.60
2019-02-15T06:04:25.895Z,-0.50
2019-02-15T06:06:53.468Z,-0.60
2019-02-15T06:09:20.774Z,-0.70
2019-02-15T06:11:48.382Z,-0.90
2019-02-15T06:14:15.712Z,-0.90
2019-02-15T06:16:43.056Z,-0.90
2019-02-15T06:19:10.644Z,-0.90
2019-02-15T06:21:37.980Z,-1.00
2019-02-15T06:24:05.561Z,-1.10
2019-02-15T06:26:32.883Z,-1.10
2019-02-15T06:29:00.303Z,-1.20
2019-02-15T06:31:27.904Z,-1.10
2019-02-15T06:33:55.206Z,-1.10
2019-02-15T06:36:23.711Z,-0.90
2019-02-15T06:38:51.345Z,-0.80
2019-02-15T06:41:18.975Z,-0.80
2019-02-15T06:43:46.336Z,-0.80
2019-02-15T06:46:13.957Z,-0.70
2019-02-15T06:48:41.600Z,-0.70
2019-02-15T06:51:08.947Z,-0.70
2019-02-15T06:53:36.257Z,-0.60
2019-02-15T06:56:03.636Z,-0.40
2019-02-15T06:58:31.895Z,-0.40
2019-02-15T07:01:24.980Z,-0.40
2019-02-15T07:04:05.836Z,-0.30
2019-02-15T07:06:33.196Z,-0.20
2019-02-15T07:09:00.520Z,-0.10
2019-02-15T07:11:27.924Z,0.00
2019-02-15T07:13:55.237Z,0.20
2019-02-15T07:16:22.923Z,0.20
2019-02-15T07:18:50.559Z,0.30
2019-02-15T07:21:18.249Z,0.50
2019-02-15T07:23:45.524Z,0.70
2019-02-15T07:26:12.943Z,0.70
2019-02-15T07:28:40.313Z,0.90
2019-02-15T07:31:07.726Z,1.10
2019-02-15T07:33:35.131Z,1.10
2019-02-15T07:36:02.606Z,1.10
2019-02-15T07:38:30.204Z,1.10
2019-02-15T07:40:57.613Z,1.30
2019-02-15T07:43:25.289Z,1.50
2019-02-15T07:45:52.665Z,1.50
2019-02-15T07:48:20.088Z,1.60
2019-02-15T07:50:47.789Z,1.70
2019-02-15T07:53:15.296Z,1.90
2019-02-15T07:55:42.870Z,2.30
2019-02-15T07:58:10.308Z,2.80
2019-02-15T08:00:37.905Z,3.30
2019-02-15T08:03:05.292Z,3.80
2019-02-15T08:05:32.623Z,4.10
2019-02-15T08:07:59.987Z,3.70
2019-02-15T08:10:27.588Z,3.80
2019-02-15T08:12:55.007Z,3.90
2019-02-15T08:15:22.311Z,4.20
2019-02-15T08:17:49.666Z,4.30
2019-02-15T08:20:17.025Z,4.40
2019-02-15T08:22:44.680Z,4.50
2019-02-15T08:25:11.966Z,4.60
2019-02-15T08:27:39.374Z,4.90
2019-02-15T08:30:08.038Z,5.00
2019-02-15T08:32:35.784Z,5.10
2019-02-15T08:35:03.164Z,5.30
2019-02-15T08:37:30.577Z,5.30
2019-02-15T08:39:58.161Z,5.50
2019-02-15T08:42:25.818Z,5.70
2019-02-15T08:44:53.128Z,5.70
2019-02-15T08:47:20.512Z,5.50
2019-02-15T08:49:48.125Z,5.70
2019-02-15T08:52:15.498Z,5.80
2019-02-15T08:54:43.086Z,5.90
2019-02-15T08:57:10.729Z,6.20
2019-02-15T08:59:38.319Z,6.30
2019-02-15T09:02:13.435Z,6.20
2019-02-15T09:04:40.808Z,6.30
2019-02-15T09:07:08.200Z,6.40
2019-02-15T09:09:39.144Z,6.70
2019-02-15T09:12:06.620Z,6.60
2019-02-15T09:14:34.262Z,6.80
2019-02-15T09:17:01.597Z,6.90
2019-02-15T09:19:29.321Z,6.90
2019-02-15T09:21:56.683Z,7.10
2019-02-15T09:24:24.285Z,7.30
2019-02-15T09:26:51.645Z,7.50
2019-02-15T09:29:19.292Z,7.50
2019-02-15T09:31:47.362Z,7.70
2019-02-15T09:34:14.690Z,7.70
2019-02-15T09:36:42.353Z,7.90
2019-02-15T09:39:09.957Z,8.00
2019-02-15T09:41:37.604Z,8.20
2019-02-15T09:44:05.277Z,8.40
2019-02-15T09:46:32.815Z,8.60
2019-02-15T09:49:00.210Z,8.50
2019-02-15T09:51:27.528Z,8.50
2019-02-15T09:53:55.118Z,8.70
2019-02-15T09:56:22.435Z,8.90
2019-02-15T09:58:49.835Z,9.20
2019-02-15T10:01:17.894Z,9.30
2019-02-15T10:03:45.352Z,9.50
2019-02-15T10:06:13.072Z,9.70
2019-02-15T10:08:40.703Z,9.80
2019-02-15T10:11:08.025Z,9.80
2019-02-15T10:13:35.585Z,10.00
2019-02-15T10:16:02.901Z,10.30
2019-02-15T10:18:30.810Z,10.40
2019-02-15T10:20:58.467Z,10.50
2019-02-15T10:23:25.749Z,10.50
2019-02-15T10:25:53.370Z,10.70
2019-02-15T10:28:20.239Z,11.00
2019-02-15T10:30:47.148Z,11.20
2019-02-15T10:33:14.204Z,11.20
2019-02-15T10:35:41.254Z,11.40
2019-02-15T10:38:08.028Z,11.40
2019-02-15T10:40:35.042Z,11.60
2019-02-15T10:43:02.097Z,11.60
2019-02-15T10:45:28.900Z,11.70
2019-02-15T10:47:55.643Z,11.90
2019-02-15T10:50:22.998Z,11.90
2019-02-15T10:52:50.395Z,12.10
2019-02-15T10:55:17.989Z,12.20
2019-02-15T10:57:45.297Z,12.30
2019-02-15T11:00:16.940Z,12.60
2019-02-15T11:02:44.932Z,12.70
2019-02-15T11:05:12.338Z,12.80
2019-02-15T11:07:39.664Z,12.90
2019-02-15T11:10:07.276Z,13.10
2019-02-15T11:12:34.624Z,13.20
2019-02-15T11:15:02.188Z,13.40
2019-02-15T11:17:30.109Z,13.60
2019-02-15T11:19:57.420Z,13.80
2019-02-15T11:22:24.723Z,13.90
2019-02-15T11:24:52.026Z,13.90
2019-02-15T11:27:19.680Z,14.00
2019-02-15T11:29:46.960Z,14.20
2019-02-15T11:32:14.901Z,14.30
2019-02-15T11:34:42.216Z,14.40
2019-02-15T11:37:09.520Z,14.60
2019-02-15T11:39:37.088Z,14.70
2019-02-15T11:42:04.422Z,14.70
2019-02-15T11:44:32.128Z,14.80
2019-02-15T11:46:59.500Z,15.00
2019-02-15T11:49:27.175Z,15.00
2019-02-15T11:51:54.582Z,15.10
2019-02-15T11:54:23.766Z,15.20
2019-02-15T11:56:51.269Z,15.40
2019-02-15T11:59:18.545Z,15.30
2019-02-15T12:01:45.916Z,15.40
2019-02-15T12:04:12.944Z,15.50
2019-02-15T12:06:39.716Z,15.70
2019-02-15T12:09:06.646Z,15.70
2019-02-15T12:11:34.352Z,15.70
2019-02-15T12:14:01.996Z,16.00
2019-02-15T12:16:29.856Z,16.00
2019-02-15T12:18:57.901Z,16.10
2019-02-15T12:21:25.618Z,16.00
2019-02-15T12:23:52.957Z,16.20
2019-02-15T12:26:20.312Z,16.30
2019-02-15T12:28:48.336Z,16.40
2019-02-15T12:31:15.884Z,16.60
2019-02-15T12:33:43.223Z,16.70
2019-02-15T12:36:10.562Z,16.80
2019-02-15T12:38:38.161Z,16.80
2019-02-15T12:41:05.495Z,16.80
2019-02-15T12:43:33.680Z,16.80
2019-02-15T12:46:00.985Z,16.90
2019-02-15T12:48:28.747Z,16.90
2019-02-15T12:50:56.029Z,17.10
2019-02-15T12:53:23.372Z,17.10
2019-02-15T12:55:50.664Z,17.20
2019-02-15T12:58:18.280Z,17.30
2019-02-15T13:00:45.574Z,17.40
2019-02-15T13:03:13.150Z,17.50
2019-02-15T13:05:40.498Z,17.40
2019-02-15T13:08:07.820Z,17.50
2019-02-15T13:10:37.305Z,17.60
2019-02-15T13:13:05.191Z,17.70
2019-02-15T13:15:32.781Z,17.80
2019-02-15T13:18:00.428Z,17.70
2019-02-15T13:20:27.814Z,17.70
2019-02-15T13:22:55.135Z,18.00
2019-02-15T13:25:22.433Z,17.90
2019-02-15T13:27:49.768Z,17.70
2019-02-15T13:30:17.085Z,17.50
2019-02-15T13:32:44.667Z,17.70
2019-02-15T13:35:12.716Z,18.00
2019-02-15T13:37:40.053Z,17.90
2019-02-15T13:40:07.797Z,17.70
2019-02-15T13:42:35.224Z,17.70
2019-02-15T13:45:02.569Z,17.70
2019-02-15T13:47:34.544Z,17.80
2019-02-15T13:49:59.400Z,17.90
2019-02-15T13:52:26.679Z,18.10
2019-02-15T13:54:53.997Z,18.30
2019-02-15T13:57:21.625Z,18.20
2019-02-15T13:59:48.974Z,18.30
2019-02-15T14:02:16.272Z,18.10
2019-02-15T14:05:09.628Z,18.00
2019-02-15T14:07:37.255Z,17.80
2019-02-15T14:10:05.708Z,17.60
2019-02-15T14:12:33.002Z,17.40
2019-02-15T14:15:00.925Z,17.50
2019-02-15T14:17:28.893Z,17.60
2019-02-15T14:19:56.244Z,17.70
2019-02-15T14:22:24.101Z,17.70
2019-02-15T14:24:51.796Z,17.70
2019-02-15T14:27:19.673Z,17.70
2019-02-15T14:29:46.980Z,17.70
2019-02-15T14:32:14.568Z,17.60
2019-02-15T14:34:41.908Z,17.30
2019-02-15T14:37:09.761Z,17.30
2019-02-15T14:39:37.249Z,17.50
2019-02-15T14:42:04.572Z,17.60
2019-02-15T14:44:31.928Z,17.60
2019-02-15T14:46:59.306Z,17.50
2019-02-15T14:49:26.653Z,17.30
2019-02-15T14:51:54.289Z,17.50
2019-02-15T14:54:21.685Z,17.50
2019-02-15T14:56:49.326Z,17.40
2019-02-15T14:59:16.909Z,17.40
2019-02-15T15:01:45.039Z,17.50
2019-02-15T15:04:12.400Z,17.60
2019-02-15T15:06:40.255Z,17.60
2019-02-15T15:09:08.178Z,17.40
2019-02-15T15:11:35.835Z,17.30
2019-02-15T15:14:03.442Z,17.10
2019-02-15T15:16:31.068Z,16.90
2019-02-15T15:18:58.615Z,16.80
2019-02-15T15:21:26.182Z,16.90
2019-02-15T15:23:53.856Z,17.10
2019-02-15T15:26:21.416Z,17.10
2019-02-15T15:28:49.059Z,17.00
2019-02-15T15:31:16.684Z,16.90
2019-02-15T15:33:44.058Z,16.80
2019-02-15T15:36:11.634Z,16.70
2019-02-15T15:38:39.270Z,16.60
2019-02-15T15:41:06.901Z,16.40
2019-02-15T15:43:34.503Z,16.30
2019-02-15T15:47:09.277Z,16.10
2019-02-15T15:48:36.225Z,16.00
2019-02-15T15:51:04.014Z,16.00
2019-02-15T15:53:31.618Z,15.90
2019-02-15T15:55:58.949Z,15.80
2019-02-15T15:58:26.576Z,15.60
2019-02-15T16:00:54.141Z,15.30
2019-02-15T16:03:21.473Z,15.10
2019-02-15T16:05:48.798Z,14.90
2019-02-15T16:08:16.096Z,14.70
2019-02-15T16:10:43.710Z,14.60
2019-02-15T16:13:11.820Z,14.40
2019-02-15T16:15:39.754Z,14.20
2019-02-15T16:18:07.377Z,14.00
2019-02-15T16:20:34.844Z,13.70
2019-02-15T16:23:10.971Z,13.40
2019-02-15T16:25:34.557Z,13.20
2019-02-15T16:28:02.220Z,12.90
2019-02-15T16:30:29.548Z,12.70
2019-02-15T16:32:57.161Z,12.40
2019-02-15T16:35:24.485Z,12.20
2019-02-15T16:37:52.087Z,11.90
2019-02-15T16:40:19.578Z,11.70
2019-02-15T16:42:47.672Z,11.60
2019-02-15T16:45:23.605Z,11.40
2019-02-15T16:47:52.352Z,11.40
2019-02-15T16:50:19.753Z,11.20
2019-02-15T16:52:47.073Z,11.00
2019-02-15T16:55:14.973Z,10.90
2019-02-15T16:57:42.366Z,10.80
2019-02-15T17:00:10.038Z,10.70
2019-02-15T17:02:37.650Z,10.50
2019-02-15T17:05:05.818Z,10.30
2019-02-15T17:07:33.121Z,10.10
2019-02-15T17:10:00.455Z,9.90
2019-02-15T17:12:28.045Z,9.70
2019-02-15T17:14:55.384Z,9.50
2019-02-15T17:17:34.820Z,9.40
2019-02-15T17:20:07.533Z,9.30
2019-02-15T17:22:38.720Z,9.10
2019-02-15T17:25:07.121Z,9.10
2019-02-15T17:27:35.015Z,9.00
2019-02-15T17:30:02.718Z,8.80
2019-02-15T17:32:30.156Z,8.60
2019-02-15T17:34:59.005Z,8.50
2019-02-15T17:37:26.664Z,8.20
2019-02-15T17:39:54.263Z,8.10
2019-02-15T17:42:22.013Z,8.00
2019-02-15T17:44:49.674Z,7.80
2019-02-15T17:47:17.374Z,7.70
2019-02-15T17:49:44.754Z,7.70
2019-02-15T17:52:12.710Z,7.70
2019-02-15T17:54:40.285Z,7.60
2019-02-15T17:57:08.192Z,7.50
2019-02-15T17:59:35.473Z,7.40
2019-02-15T18:02:02.996Z,7.30
2019-02-15T18:04:30.626Z,7.20
2019-02-15T18:06:57.956Z,7.40
2019-02-15T18:09:25.615Z,7.40
2019-02-15T18:11:53.025Z,7.50
2019-02-15T18:14:20.676Z,7.60
2019-02-15T18:16:48.252Z,7.70
2019-02-15T18:19:15.818Z,7.80
2019-02-15T18:21:43.127Z,7.70
2019-02-15T18:24:10.422Z,7.80
2019-02-15T18:26:38.044Z,7.80
2019-02-15T18:29:05.989Z,7.80
2019-02-15T18:31:33.607Z,7.80
2019-02-15T18:34:01.025Z,7.80
2019-02-15T18:36:28.935Z,7.80
2019-02-15T18:39:00.901Z,7.70
2019-02-15T18:42:03.630Z,7.60
2019-02-15T18:44:57.342Z,7.60
2019-02-15T18:47:25.610Z,7.30
2019-02-15T18:49:52.984Z,7.00
2019-02-15T18:52:20.346Z,6.80
2019-02-15T18:54:47.644Z,6.70
2019-02-15T18:57:15.257Z,6.60
2019-02-15T18:59:43.070Z,6.40
2019-02-15T19:02:10.801Z,6.20
2019-02-15T19:04:38.165Z,6.10
2019-02-15T19:07:05.499Z,6.10
2019-02-15T19:09:32.800Z,6.10
2019-02-15T19:12:00.169Z,6.00
2019-02-15T19:14:27.871Z,5.80
2019-02-15T19:16:55.232Z,5.60
2019-02-15T19:19:28.949Z,5.80
2019-02-15T19:21:52.128Z,5.70
2019-02-15T19:24:19.704Z,5.80
2019-02-15T19:26:47.312Z,5.90
2019-02-15T19:29:14.615Z,6.10
2019-02-15T19:31:48.081Z,6.30
2019-02-15T19:34:15.430Z,6.30
2019-02-15T19:36:42.806Z,6.30
2019-02-15T19:39:10.092Z,6.40
2019-02-15T19:41:37.436Z,6.50
2019-02-15T19:44:05.004Z,6.60
2019-02-15T19:46:32.664Z,6.60
2019-02-15T19:49:00.306Z,6.60
2019-02-15T19:51:27.664Z,6.60
2019-02-15T19:53:55.331Z,6.70
2019-02-15T19:56:22.693Z,6.60
2019-02-15T19:58:50.697Z,6.60
2019-02-15T20:01:19.758Z,6.80
2019-02-15T20:07:09.248Z,6.50
2019-02-15T20:09:36.732Z,6.70
2019-02-15T20:12:04.326Z,6.90
2019-02-15T20:14:32.281Z,6.90
2019-02-15T20:17:00.016Z,6.70
2019-02-15T20:19:28.196Z,6.70
2019-02-15T20:21:55.914Z,6.50
2019-02-15T20:24:23.526Z,6.40
2019-02-15T20:26:51.209Z,6.50
2019-02-15T20:29:18.808Z,6.50
2019-02-15T20:31:46.691Z,6.40
2019-02-15T20:34:15.230Z,6.20
2019-02-15T20:36:43.355Z,6.30
2019-02-15T20:39:10.946Z,6.10
2019-02-15T20:41:38.639Z,6.00
2019-02-15T20:44:06.673Z,5.70
2019-02-15T20:46:34.415Z,5.70
2019-02-15T20:49:04.621Z,5.70
2019-02-15T20:51:31.510Z,5.50
2019-02-15T20:54:03.516Z,5.30
2019-02-15T20:56:32.043Z,5.10
2019-02-15T20:59:00.023Z,5.00
2019-02-15T21:01:28.062Z,5.00
2019-02-15T21:03:56.154Z,5.10
2019-02-15T21:06:23.752Z,4.90
2019-02-15T21:08:51.722Z,5.10
2019-02-15T21:11:19.576Z,5.10
2019-02-15T21:13:47.282Z,4.90
2019-02-15T21:16:14.915Z,4.80
2019-02-15T21:18:50.707Z,4.80
2019-02-15T21:21:18.370Z,4.90
2019-02-15T21:23:46.374Z,4.90
2019-02-15T21:26:14.037Z,4.90
2019-02-15T21:28:41.683Z,4.90
2019-02-15T21:31:11.830Z,5.00
2019-02-15T21:33:40.082Z,4.90
2019-02-15T21:36:08.412Z,4.90
2019-02-15T21:38:36.714Z,4.90
2019-02-15T21:41:04.098Z,5.10
2019-02-15T21:43:32.110Z,5.30
2019-02-15T21:46:00.184Z,5.30
2019-02-15T21:48:27.747Z,5.50
2019-02-15T21:50:56.991Z,5.30
2019-02-15T21:53:24.545Z,5.40
2019-02-15T21:55:52.570Z,5.40
2019-02-15T21:58:20.038Z,5.50
2019-02-15T22:00:47.528Z,5.50
2019-02-15T22:03:15.708Z,5.50
2019-02-15T22:05:43.149Z,5.30
2019-02-15T22:08:10.939Z,5.40
2019-02-15T22:10:38.598Z,5.30
2019-02-15T22:13:06.118Z,5.30
2019-02-15T22:15:34.332Z,5.30
2019-02-15T22:18:01.891Z,5.30
2019-02-15T22:20:30.399Z,5.20
2019-02-15T22:22:57.898Z,5.10
2019-02-15T22:25:26.069Z,4.90
2019-02-15T22:27:54.242Z,4.70
2019-02-15T22:30:21.594Z,4.60
2019-02-15T22:32:49.443Z,4.50
2019-02-15T22:35:17.138Z,4.50
2019-02-15T22:37:44.719Z,4.30
2019-02-15T22:40:38.737Z,4.30
2019-02-15T22:43:15.291Z,4.40
2019-02-15T22:45:43.944Z,4.50
2019-02-15T22:48:12.744Z,4.30
2019-02-15T22:50:41.350Z,4.10
2019-02-15T22:53:09.165Z,3.70
2019-02-15T22:55:37.117Z,3.80
2019-02-15T22:58:05.840Z,3.80
2019-02-15T23:01:04.840Z,3.90
2019-02-15T23:03:32.382Z,3.80
2019-02-15T23:06:00.211Z,3.90
2019-02-15T23:08:27.914Z,3.80
2019-02-15T23:10:55.237Z,4.10
2019-02-15T23:13:22.581Z,4.20
2019-02-15T23:15:49.894Z,4.20
2019-02-15T23:18:18.906Z,4.10
2019-02-15T23:20:46.953Z,4.30
2019-02-15T23:23:14.335Z,4.30
2019-02-15T23:25:41.997Z,4.20
2019-02-15T23:28:09.473Z,4.20
2019-02-15T23:30:36.875Z,4.20
2019-02-15T23:33:04.526Z,4.30
2019-02-15T23:35:31.932Z,4.10
2019-02-15T23:37:59.278Z,3.90
2019-02-15T23:40:26.608Z,3.90
2019-02-15T23:42:54.686Z,3.80
2019-02-15T23:45:22.642Z,3.80
2019-02-15T23:47:50.275Z,3.90
2019-02-15T23:50:17.928Z,3.90
2019-02-15T23:52:45.573Z,3.90
2019-02-15T23:55:12.937Z,3.80
2019-02-15T23:57:42.120Z,3.90
